createdAt,value
2022-09-25T00:00:42.773Z,99927.31
2022-09-25T00:01:47.002Z,99927.31
2022-09-25T00:02:49.314Z,99919.69
2022-09-25T00:03:51.718Z,99921.34
2022-09-25T00:04:53.390Z,99930.97
2022-09-25T00:06:00.732Z,99922.50
2022-09-25T00:07:02.942Z,99914.88
2022-09-25T00:08:05.742Z,99931.81
2022-09-25T00:09:10.199Z,99925.66
2022-09-25T00:10:12.399Z,99936.94
2022-09-25T00:11:15.737Z,99933.28
2022-09-25T00:12:17.665Z,99930.78
2022-09-25T00:13:20.568Z,99929.94
2022-09-25T00:14:22.298Z,99926.63
2022-09-25T00:15:24.162Z,99927.44
2022-09-25T00:16:27.286Z,99931.44
2022-09-25T00:17:28.759Z,99926.13
2022-09-25T00:18:49.045Z,99928.09
2022-09-25T00:19:50.609Z,99927.28
2022-09-25T00:21:00.110Z,99922.47
2022-09-25T00:22:01.580Z,99921.63
2022-09-25T00:23:03.081Z,99920.81
2022-09-25T00:24:05.547Z,99921.63
2022-09-25T00:25:07.207Z,99919.97
2022-09-25T00:26:08.847Z,99917.16
2022-09-25T00:27:10.380Z,99919.97
2022-09-25T00:28:15.188Z,99914.31
2022-09-25T00:29:20.542Z,99924.44
2022-09-25T00:30:22.219Z,99921.63
2022-09-25T00:31:24.869Z,99917.97
2022-09-25T00:32:26.698Z,99914.31
2022-09-25T00:33:29.714Z,99916.81
2022-09-25T00:34:31.475Z,99915.16
2022-09-25T00:35:34.068Z,99915.97
2022-09-25T00:36:36.278Z,99922.47
2022-09-25T00:37:38.148Z,99918.81
2022-09-25T00:38:40.552Z,99923.28
2022-09-25T00:39:42.113Z,99924.13
2022-09-25T00:40:43.845Z,99924.94
2022-09-25T00:41:45.548Z,99908.34
2022-09-25T00:42:49.482Z,99915.97
2022-09-25T00:43:51.969Z,99918.47
2022-09-25T00:44:56.479Z,99914.81
2022-09-25T00:45:58.018Z,99919.31
2022-09-25T00:46:59.586Z,99921.63
2022-09-25T00:48:01.295Z,99915.97
2022-09-25T00:49:07.367Z,99913.16
2022-09-25T00:50:32.151Z,99915.97
2022-09-25T00:51:41.612Z,99918.47
2022-09-25T00:52:43.948Z,99909.19
2022-09-25T00:53:45.963Z,99910.00
2022-09-25T00:54:52.684Z,99906.34
2022-09-25T00:55:55.174Z,99904.38
2022-09-25T00:56:57.221Z,99912.00
2022-09-25T00:57:59.259Z,99906.34
2022-09-25T00:59:01.005Z,99906.34
2022-09-25T01:00:07.044Z,99900.72
2022-09-25T01:01:09.727Z,99899.88
2022-09-25T01:02:14.583Z,99899.06
2022-09-25T01:03:17.003Z,99900.22
2022-09-25T01:04:18.549Z,99907.50
2022-09-25T01:05:21.375Z,99900.22
2022-09-25T01:06:23.080Z,99900.22
2022-09-25T01:07:24.550Z,99903.03
2022-09-25T01:08:26.250Z,99900.22
2022-09-25T01:09:28.026Z,99900.22
2022-09-25T01:10:29.557Z,99903.03
2022-09-25T01:11:31.142Z,99896.56
2022-09-25T01:12:33.629Z,99896.56
2022-09-25T01:13:35.253Z,99899.72
2022-09-25T01:14:37.098Z,99893.25
2022-09-25T01:16:01.373Z,99901.69
2022-09-25T01:17:14.925Z,99896.06
2022-09-25T01:18:29.637Z,99905.34
2022-09-25T01:19:43.263Z,99900.88
2022-09-25T01:21:14.042Z,99904.53
2022-09-25T01:22:26.714Z,99891.91
2022-09-25T01:23:33.945Z,99912.50
2022-09-25T01:24:40.505Z,99902.03
2022-09-25T01:25:45.431Z,99902.34
2022-09-25T01:26:59.573Z,99900.38
2022-09-25T01:28:10.163Z,99896.72
2022-09-25T01:29:12.502Z,99892.19
2022-09-25T01:30:14.833Z,99894.19
2022-09-25T01:31:18.443Z,99892.53
2022-09-25T01:32:23.922Z,99892.53
2022-09-25T01:33:33.718Z,99895.69
2022-09-25T01:35:04.202Z,99893.69
2022-09-25T01:36:08.713Z,99894.34
2022-09-25T01:37:24.082Z,99898.81
2022-09-25T01:38:34.532Z,99895.19
2022-09-25T01:39:37.353Z,99894.34
2022-09-25T01:40:41.034Z,99891.03
2022-09-25T01:41:57.951Z,99892.69
2022-09-25T01:43:00.769Z,99897.50
2022-09-25T01:44:28.809Z,99892.69
2022-09-25T01:45:36.582Z,99891.03
2022-09-25T01:46:40.395Z,99894.69
2022-09-25T01:47:43.208Z,99889.03
2022-09-25T01:48:50.179Z,99895.50
2022-09-25T01:49:53.710Z,99882.56
2022-09-25T01:50:55.417Z,99884.56
2022-09-25T01:51:57.841Z,99890.19
2022-09-25T01:53:00.615Z,99891.03
2022-09-25T01:54:04.730Z,99887.69
2022-09-25T01:55:08.522Z,99880.91
2022-09-25T01:56:36.891Z,99883.72
2022-09-25T01:57:44.241Z,99887.69
2022-09-25T01:58:55.600Z,99886.03
2022-09-25T02:00:03.128Z,99883.22
2022-09-25T02:01:18.639Z,99890.84
2022-09-25T02:02:21.975Z,99887.19
2022-09-25T02:03:46.999Z,99888.31
2022-09-25T02:05:08.113Z,99887.00
2022-09-25T02:06:11.502Z,99886.16
2022-09-25T02:07:16.721Z,99883.34
2022-09-25T02:08:23.266Z,99885.28
2022-09-25T02:09:28.024Z,99882.47
2022-09-25T02:10:37.783Z,99881.63
2022-09-25T02:11:44.023Z,99881.63
2022-09-25T02:12:48.136Z,99885.63
2022-09-25T02:13:54.619Z,99882.81
2022-09-25T02:14:59.991Z,99880.81
2022-09-25T02:16:07.110Z,99882.81
2022-09-25T02:17:10.941Z,99880.31
2022-09-25T02:18:32.290Z,99888.78
2022-09-25T02:19:52.974Z,99889.09
2022-09-25T02:21:12.895Z,99884.63
2022-09-25T02:22:19.910Z,99888.59
2022-09-25T02:23:24.082Z,99891.75
2022-09-25T02:24:44.532Z,99882.13
2022-09-25T02:25:48.448Z,99886.41
2022-09-25T02:26:51.005Z,99881.59
2022-09-25T02:27:53.699Z,99885.25
2022-09-25T02:28:55.474Z,99890.88
2022-09-25T02:29:57.610Z,99894.88
2022-09-25T02:31:02.129Z,99892.88
2022-09-25T02:32:05.044Z,99887.56
2022-09-25T02:33:06.532Z,99892.69
2022-09-25T02:34:13.776Z,99900.31
2022-09-25T02:35:16.427Z,99886.56
2022-09-25T02:36:24.083Z,99893.34
2022-09-25T02:37:26.316Z,99886.88
2022-09-25T02:38:27.905Z,99894.50
2022-09-25T02:39:30.092Z,99887.22
2022-09-25T02:40:36.770Z,99891.19
2022-09-25T02:41:38.227Z,99886.69
2022-09-25T02:42:45.092Z,99892.34
2022-09-25T02:43:58.734Z,99894.31
2022-09-25T02:45:26.116Z,99890.69
2022-09-25T02:46:43.390Z,99892.63
2022-09-25T02:47:47.813Z,99890.69
2022-09-25T02:49:09.527Z,99890.69
2022-09-25T02:50:13.482Z,99885.88
2022-09-25T02:51:24.828Z,99890.34
2022-09-25T02:52:26.296Z,99884.72
2022-09-25T02:53:36.072Z,99884.72
2022-09-25T02:54:47.704Z,99882.72
2022-09-25T02:56:12.462Z,99887.22
2022-09-25T02:57:23.072Z,99886.03
2022-09-25T02:58:26.885Z,99886.88
2022-09-25T02:59:29.574Z,99886.88
2022-09-25T03:00:32.160Z,99885.22
2022-09-25T03:01:33.817Z,99884.88
2022-09-25T03:02:35.565Z,99882.91
2022-09-25T03:03:38.331Z,99883.22
2022-09-25T03:04:40.605Z,99883.22
2022-09-25T03:05:42.570Z,99877.59
2022-09-25T03:06:44.283Z,99888.88
2022-09-25T03:08:05.043Z,99882.41
2022-09-25T03:09:07.230Z,99885.22
2022-09-25T03:10:09.804Z,99882.72
2022-09-25T03:11:13.303Z,99886.38
2022-09-25T03:12:15.600Z,99880.72
2022-09-25T03:13:22.238Z,99881.88
2022-09-25T03:14:29.185Z,99878.25
2022-09-25T03:15:30.848Z,99881.06
2022-09-25T03:16:57.366Z,99878.25
2022-09-25T03:17:59.531Z,99882.22
2022-09-25T03:19:01.689Z,99879.41
2022-09-25T03:20:03.307Z,99870.56
2022-09-25T03:21:05.017Z,99887.84
2022-09-25T03:22:07.219Z,99886.16
2022-09-25T03:23:09.006Z,99886.16
2022-09-25T03:24:10.714Z,99887.84
2022-09-25T03:25:12.272Z,99886.16
2022-09-25T03:26:13.739Z,99893.50
2022-09-25T03:27:15.265Z,99891.81
2022-09-25T03:28:16.714Z,99884.50
2022-09-25T03:29:18.206Z,99880.53
2022-09-25T03:30:19.818Z,99880.53
2022-09-25T03:31:21.398Z,99884.19
2022-09-25T03:32:23.422Z,99886.16
2022-09-25T03:33:25.257Z,99880.53
2022-09-25T03:34:26.758Z,99886.16
2022-09-25T03:35:28.180Z,99881.69
2022-09-25T03:36:29.993Z,99887.31
2022-09-25T03:37:32.374Z,99882.84
2022-09-25T03:38:36.073Z,99881.69
2022-09-25T03:39:37.577Z,99877.19
2022-09-25T03:40:39.065Z,99881.19
2022-09-25T03:41:40.622Z,99877.19
2022-09-25T03:42:45.520Z,99875.53
2022-09-25T03:43:48.402Z,99872.72
2022-09-25T03:44:49.903Z,99877.53
2022-09-25T03:45:51.497Z,99869.06
2022-09-25T03:46:53.312Z,99856.38
2022-09-25T03:47:56.124Z,99869.06
2022-09-25T03:48:58.327Z,99875.53
2022-09-25T03:50:00.268Z,99875.53
2022-09-25T03:51:03.305Z,99871.88
2022-09-25T03:52:04.988Z,99879.50
2022-09-25T03:53:07.336Z,99879.50
2022-09-25T03:54:09.071Z,99875.53
2022-09-25T03:55:12.020Z,99879.50
2022-09-25T03:56:14.594Z,99880.34
2022-09-25T03:57:16.285Z,99880.34
2022-09-25T03:58:18.360Z,99875.53
2022-09-25T03:59:20.323Z,99869.91
2022-09-25T04:00:24.272Z,99873.88
2022-09-25T04:01:26.398Z,99873.88
2022-09-25T04:02:28.814Z,99875.88
2022-09-25T04:03:30.650Z,99868.22
2022-09-25T04:04:32.772Z,99868.22
2022-09-25T04:05:35.159Z,99876.69
2022-09-25T04:06:37.083Z,99871.38
2022-09-25T04:07:38.945Z,99865.75
2022-09-25T04:08:40.896Z,99866.56
2022-09-25T04:09:42.800Z,99865.75
2022-09-25T04:10:44.648Z,99870.56
2022-09-25T04:11:46.667Z,99864.91
2022-09-25T04:12:48.492Z,99868.88
2022-09-25T04:13:50.377Z,99870.88
2022-09-25T04:14:52.645Z,99868.06
2022-09-25T04:15:54.453Z,99873.69
2022-09-25T04:16:56.761Z,99866.41
2022-09-25T04:18:01.170Z,99863.91
2022-09-25T04:19:07.480Z,99871.19
2022-09-25T04:20:09.936Z,99864.72
2022-09-25T04:21:11.963Z,99861.09
2022-09-25T04:22:13.466Z,99867.56
2022-09-25T04:23:15.334Z,99870.03
2022-09-25T04:24:35.608Z,99871.19
2022-09-25T04:25:37.125Z,99872.03
2022-09-25T04:26:38.657Z,99865.56
2022-09-25T04:27:40.580Z,99865.56
2022-09-25T04:28:45.352Z,99867.22
2022-09-25T04:29:47.030Z,99874.84
2022-09-25T04:30:48.680Z,99872.88
2022-09-25T04:32:10.482Z,99874.53
2022-09-25T04:33:31.106Z,99867.22
2022-09-25T04:34:33.024Z,99874.03
2022-09-25T04:35:35.641Z,99869.53
2022-09-25T04:36:38.569Z,99871.53
2022-09-25T04:37:40.648Z,99868.72
2022-09-25T04:38:42.379Z,99876.34
2022-09-25T04:39:43.942Z,99874.34
2022-09-25T04:40:46.069Z,99872.38
2022-09-25T04:41:47.843Z,99877.16
2022-09-25T04:42:49.336Z,99867.88
2022-09-25T04:43:50.811Z,99873.53
2022-09-25T04:44:53.053Z,99874.34
2022-09-25T04:45:54.624Z,99874.34
2022-09-25T04:46:56.124Z,99868.72
2022-09-25T04:47:58.808Z,99873.53
2022-09-25T04:49:00.221Z,99875.19
2022-09-25T04:50:01.675Z,99877.16
2022-09-25T04:51:03.611Z,99872.38
2022-09-25T04:52:05.428Z,99873.53
2022-09-25T04:53:06.931Z,99875.19
2022-09-25T04:54:08.408Z,99883.63
2022-09-25T04:55:09.931Z,99879.16
2022-09-25T04:56:15.551Z,99881.97
2022-09-25T04:57:38.805Z,99879.16
2022-09-25T04:58:40.154Z,99887.28
2022-09-25T04:59:41.740Z,99880.81
2022-09-25T05:00:43.279Z,99889.28
2022-09-25T05:01:44.845Z,99875.19
2022-09-25T05:02:46.917Z,99882.81
2022-09-25T05:03:50.178Z,99877.47
2022-09-25T05:04:51.899Z,99881.16
2022-09-25T05:05:53.749Z,99877.47
2022-09-25T05:06:55.262Z,99883.97
2022-09-25T05:08:00.262Z,99881.16
2022-09-25T05:09:03.601Z,99876.34
2022-09-25T05:10:05.887Z,99884.78
2022-09-25T05:11:09.104Z,99883.09
2022-09-25T05:12:11.745Z,99881.16
2022-09-25T05:13:13.630Z,99883.97
2022-09-25T05:14:15.421Z,99876.34
2022-09-25T05:15:18.088Z,99887.09
2022-09-25T05:16:19.835Z,99880.59
2022-09-25T05:17:21.976Z,99885.41
2022-09-25T05:18:24.366Z,99881.59
2022-09-25T05:19:25.940Z,99878.13
2022-09-25T05:20:27.527Z,99884.59
2022-09-25T05:21:29.156Z,99879.78
2022-09-25T05:22:30.638Z,99882.59
2022-09-25T05:23:32.235Z,99885.41
2022-09-25T05:24:39.163Z,99878.94
2022-09-25T05:25:43.653Z,99880.94
2022-09-25T05:26:50.836Z,99883.75
2022-09-25T05:27:54.503Z,99872.47
2022-09-25T05:28:56.021Z,99875.28
2022-09-25T05:29:57.623Z,99877.28
2022-09-25T05:31:02.900Z,99871.66
2022-09-25T05:32:04.505Z,99876.44
2022-09-25T05:33:06.073Z,99872.47
2022-09-25T05:34:09.135Z,99878.13
2022-09-25T05:35:11.858Z,99877.28
2022-09-25T05:36:13.468Z,99875.28
2022-09-25T05:37:14.994Z,99878.13
2022-09-25T05:38:16.567Z,99875.63
2022-09-25T05:39:18.040Z,99877.28
2022-09-25T05:40:21.207Z,99879.78
2022-09-25T05:41:23.624Z,99872.47
2022-09-25T05:42:25.215Z,99886.56
2022-09-25T05:43:26.887Z,99880.09
2022-09-25T05:44:28.515Z,99888.25
2022-09-25T05:45:29.938Z,99882.59
2022-09-25T05:46:31.576Z,99883.75
2022-09-25T05:47:33.209Z,99878.94
2022-09-25T05:48:34.785Z,99876.13
2022-09-25T05:49:36.254Z,99885.41
2022-09-25T05:50:37.730Z,99880.59
2022-09-25T05:51:39.225Z,99885.41
2022-09-25T05:52:47.253Z,99888.75
2022-09-25T05:53:49.074Z,99889.06
2022-09-25T05:54:50.734Z,99887.91
2022-09-25T05:55:55.389Z,99885.91
2022-09-25T05:56:56.942Z,99883.09
2022-09-25T05:58:04.397Z,99878.63
2022-09-25T05:59:05.887Z,99883.97
2022-09-25T06:00:09.069Z,99886.78
2022-09-25T06:01:14.159Z,99884.78
2022-09-25T06:02:16.188Z,99886.47
2022-09-25T06:03:17.873Z,99884.78
2022-09-25T06:04:19.421Z,99884.78
2022-09-25T06:05:20.956Z,99888.44
2022-09-25T06:06:26.663Z,99873.53
2022-09-25T06:07:29.060Z,99888.94
2022-09-25T06:08:32.973Z,99883.31
2022-09-25T06:09:34.853Z,99885.31
2022-09-25T06:10:36.358Z,99891.78
2022-09-25T06:11:37.907Z,99894.59
2022-09-25T06:12:39.383Z,99895.44
2022-09-25T06:13:49.541Z,99887.78
2022-09-25T06:14:53.494Z,99889.78
2022-09-25T06:15:55.167Z,99892.59
2022-09-25T06:16:59.527Z,99893.44
2022-09-25T06:18:01.068Z,99900.75
2022-09-25T06:19:02.816Z,99895.09
2022-09-25T06:20:04.598Z,99895.09
2022-09-25T06:21:06.116Z,99895.94
2022-09-25T06:22:08.525Z,99901.56
2022-09-25T06:23:10.091Z,99890.28
2022-09-25T06:24:11.875Z,99888.31
2022-09-25T06:25:15.842Z,99897.59
2022-09-25T06:26:17.324Z,99896.44
2022-09-25T06:27:18.880Z,99897.25
2022-09-25T06:28:20.426Z,99898.09
2022-09-25T06:29:21.907Z,99898.09
2022-09-25T06:30:23.712Z,99899.75
2022-09-25T06:31:25.631Z,99894.94
2022-09-25T06:32:27.453Z,99895.78
2022-09-25T06:33:28.965Z,99890.97
2022-09-25T06:34:30.463Z,99895.78
2022-09-25T06:35:32.004Z,99900.25
2022-09-25T06:36:33.487Z,99897.16
2022-09-25T06:37:35.028Z,99896.63
2022-09-25T06:38:36.579Z,99895.44
2022-09-25T06:39:38.064Z,99896.31
2022-09-25T06:40:41.450Z,99904.78
2022-09-25T06:41:44.027Z,99896.31
2022-09-25T06:42:46.553Z,99895.16
2022-09-25T06:43:51.426Z,99899.97
2022-09-25T06:44:52.952Z,99903.91
2022-09-25T06:45:54.497Z,99908.09
2022-09-25T06:46:56.122Z,99913.75
2022-09-25T06:48:01.385Z,99909.25
2022-09-25T06:49:02.893Z,99907.28
2022-09-25T06:50:04.970Z,99913.75
2022-09-25T06:51:10.346Z,99907.28
2022-09-25T06:52:12.505Z,99905.28
2022-09-25T06:53:14.777Z,99905.28
2022-09-25T06:54:16.677Z,99903.28
2022-09-25T06:55:18.156Z,99910.91
2022-09-25T06:56:19.939Z,99908.94
2022-09-25T06:57:21.693Z,99908.94
2022-09-25T06:58:23.325Z,99904.13
2022-09-25T06:59:27.461Z,99898.47
2022-09-25T07:00:29.008Z,99904.13
2022-09-25T07:01:30.768Z,99908.59
2022-09-25T07:02:51.893Z,99910.59
2022-09-25T07:03:53.913Z,99904.13
2022-09-25T07:04:55.721Z,99904.13
2022-09-25T07:05:59.785Z,99913.41
2022-09-25T07:07:01.812Z,99905.28
2022-09-25T07:08:03.752Z,99905.28
2022-09-25T07:09:05.278Z,99901.97
2022-09-25T07:10:07.072Z,99906.44
2022-09-25T07:11:10.344Z,99910.09
2022-09-25T07:12:11.887Z,99905.28
2022-09-25T07:13:19.844Z,99908.09
2022-09-25T07:14:22.050Z,99900.81
2022-09-25T07:15:23.563Z,99904.44
2022-09-25T07:16:26.665Z,99908.09
2022-09-25T07:17:28.396Z,99909.25
2022-09-25T07:18:29.867Z,99902.47
2022-09-25T07:19:34.225Z,99908.94
2022-09-25T07:20:36.918Z,99906.94
2022-09-25T07:21:39.123Z,99908.09
2022-09-25T07:22:41.020Z,99911.44
2022-09-25T07:23:42.603Z,99910.59
2022-09-25T07:24:44.196Z,99908.59
2022-09-25T07:25:46.159Z,99902.97
2022-09-25T07:26:47.728Z,99908.28
2022-09-25T07:27:50.148Z,99903.47
2022-09-25T07:28:55.593Z,99914.75
2022-09-25T07:29:57.519Z,99914.44
2022-09-25T07:31:10.260Z,99899.50
2022-09-25T07:32:12.037Z,99905.63
2022-09-25T07:33:13.718Z,99909.28
2022-09-25T07:34:16.489Z,99911.28
2022-09-25T07:35:18.690Z,99907.31
2022-09-25T07:36:20.306Z,99904.47
2022-09-25T07:37:21.978Z,99907.81
2022-09-25T07:38:23.461Z,99901.03
2022-09-25T07:39:24.995Z,99904.69
2022-09-25T07:40:29.188Z,99906.34
2022-09-25T07:41:30.926Z,99901.53
2022-09-25T07:42:32.502Z,99908.00
2022-09-25T07:43:36.306Z,99906.34
2022-09-25T07:44:38.673Z,99903.53
2022-09-25T07:45:45.659Z,99908.00
2022-09-25T07:46:47.348Z,99901.53
2022-09-25T07:47:48.855Z,99901.53
2022-09-25T07:48:50.667Z,99908.84
2022-09-25T07:49:52.331Z,99908.84
2022-09-25T07:50:55.614Z,99899.22
2022-09-25T07:51:57.103Z,99907.38
2022-09-25T07:52:59.136Z,99905.38
2022-09-25T07:54:01.155Z,99905.91
2022-09-25T07:55:02.626Z,99903.59
2022-09-25T07:56:06.846Z,99909.22
2022-09-25T07:57:09.120Z,99905.25
2022-09-25T07:58:10.694Z,99904.13
2022-09-25T07:59:12.160Z,99910.28
2022-09-25T08:00:16.452Z,99902.97
2022-09-25T08:01:18.175Z,99910.28
2022-09-25T08:02:20.063Z,99908.28
2022-09-25T08:03:21.952Z,99907.13
2022-09-25T08:04:23.410Z,99908.78
2022-09-25T08:05:25.561Z,99908.47
2022-09-25T08:06:27.097Z,99911.78
2022-09-25T08:07:29.232Z,99907.78
2022-09-25T08:08:30.821Z,99911.44
2022-09-25T08:09:32.317Z,99903.81
2022-09-25T08:10:33.824Z,99905.47
2022-09-25T08:11:35.677Z,99909.66
2022-09-25T08:12:37.499Z,99913.31
2022-09-25T08:13:40.011Z,99905.69
2022-09-25T08:14:42.064Z,99913.81
2022-09-25T08:15:43.571Z,99919.13
2022-09-25T08:16:45.134Z,99906.34
2022-09-25T08:17:47.272Z,99913.66
2022-09-25T08:18:49.164Z,99920.97
2022-09-25T08:19:51.033Z,99924.28
2022-09-25T08:20:52.767Z,99903.41
2022-09-25T08:21:54.876Z,99909.06
2022-09-25T08:22:57.625Z,99917.19
2022-09-25T08:23:59.270Z,99915.19
2022-09-25T08:25:04.988Z,99908.41
2022-09-25T08:26:09.161Z,99914.53
2022-09-25T08:27:10.761Z,99910.56
2022-09-25T08:28:12.222Z,99915.88
2022-09-25T08:29:13.748Z,99916.69
2022-09-25T08:30:15.880Z,99924.50
2022-09-25T08:31:19.694Z,99914.06
2022-09-25T08:32:21.245Z,99912.59
2022-09-25T08:33:22.921Z,99909.78
2022-09-25T08:34:41.319Z,99913.09
2022-09-25T08:35:43.271Z,99913.09
2022-09-25T08:36:44.843Z,99914.25
2022-09-25T08:37:48.626Z,99913.91
2022-09-25T08:38:50.117Z,99905.78
2022-09-25T08:39:51.764Z,99914.25
2022-09-25T08:40:58.186Z,99915.41
2022-09-25T08:42:00.764Z,99917.06
2022-09-25T08:43:02.280Z,99922.72
2022-09-25T08:44:06.727Z,99914.25
2022-09-25T08:45:32.810Z,99918.75
2022-09-25T08:47:02.082Z,99921.56
2022-09-25T08:50:03.637Z,99907.44
2022-09-25T08:51:07.776Z,99909.94
2022-09-25T08:52:11.343Z,99918.41
2022-09-25T08:53:19.906Z,99912.25
2022-09-25T08:54:24.775Z,99910.78
2022-09-25T08:55:48.550Z,99918.41
2022-09-25T08:56:54.109Z,99916.41
2022-09-25T08:57:55.855Z,99922.06
2022-09-25T08:59:01.722Z,99918.06
2022-09-25T09:00:22.618Z,99915.25
2022-09-25T09:01:29.328Z,99924.88
2022-09-25T09:02:36.665Z,99918.91
2022-09-25T09:03:40.828Z,99912.44
2022-09-25T09:04:46.551Z,99922.56
2022-09-25T09:05:51.565Z,99914.94
2022-09-25T09:07:25.320Z,99910.09
2022-09-25T09:08:20.312Z,99915.75
2022-09-25T09:09:25.489Z,99914.94
2022-09-25T09:10:38.218Z,99909.28
2022-09-25T09:11:42.680Z,99915.75
2022-09-25T09:12:54.452Z,99914.09
2022-09-25T09:14:05.728Z,99914.94
2022-09-25T09:15:16.212Z,99916.91
2022-09-25T09:16:28.946Z,99919.75
2022-09-25T09:17:32.348Z,99921.41
2022-09-25T09:18:37.526Z,99914.09
2022-09-25T09:19:39.079Z,99919.75
2022-09-25T09:20:46.336Z,99919.75
2022-09-25T09:22:13.771Z,99914.09
2022-09-25T09:23:16.873Z,99917.41
2022-09-25T09:24:22.179Z,99916.59
2022-09-25T09:25:25.882Z,99925.88
2022-09-25T09:26:31.328Z,99926.72
2022-09-25T09:27:40.489Z,99919.91
2022-09-25T09:28:50.247Z,99915.09
2022-09-25T09:30:05.436Z,99921.28
2022-09-25T09:31:11.024Z,99918.44
2022-09-25T09:32:31.367Z,99918.44
2022-09-25T09:33:36.574Z,99919.28
2022-09-25T09:35:04.766Z,99920.94
2022-09-25T09:36:10.775Z,99920.09
2022-09-25T09:37:15.889Z,99916.13
2022-09-25T09:38:28.357Z,99918.63
2022-09-25T09:39:32.669Z,99920.59
2022-09-25T09:40:47.233Z,99923.44
2022-09-25T09:41:54.934Z,99927.91
2022-09-25T09:43:03.635Z,99926.75
2022-09-25T09:44:14.250Z,99919.13
2022-09-25T09:45:16.341Z,99930.91
2022-09-25T09:46:24.284Z,99926.59
2022-09-25T09:47:38.673Z,99918.66
2022-09-25T09:48:43.321Z,99917.50
2022-09-25T09:49:45.962Z,99917.97
2022-09-25T09:50:52.639Z,99913.66
2022-09-25T09:51:57.325Z,99917.81
2022-09-25T09:53:01.217Z,99921.13
2022-09-25T09:54:13.378Z,99919.69
2022-09-25T09:55:19.607Z,99914.53
2022-09-25T09:56:28.469Z,99918.69
2022-09-25T09:57:34.374Z,99919.19
2022-09-25T09:58:46.448Z,99918.50
2022-09-25T10:00:08.224Z,99913.72
2022-09-25T10:01:39.854Z,99920.72
2022-09-25T10:03:01.426Z,99918.06
2022-09-25T10:04:18.795Z,99914.41
2022-09-25T10:05:38.581Z,99914.56
2022-09-25T10:06:43.481Z,99922.22
2022-09-25T10:07:45.022Z,99919.41
2022-09-25T10:08:46.518Z,99909.75
2022-09-25T10:09:49.594Z,99913.06
2022-09-25T10:10:53.895Z,99907.91
2022-09-25T10:12:03.594Z,99911.28
2022-09-25T10:13:07.338Z,99908.94
2022-09-25T10:14:09.394Z,99901.78
2022-09-25T10:15:16.004Z,99910.44
2022-09-25T10:16:23.794Z,99905.28
2022-09-25T10:17:25.331Z,99910.63
2022-09-25T10:18:28.529Z,99901.81
2022-09-25T10:19:30.045Z,99903.47
2022-09-25T10:20:50.543Z,99905.63
2022-09-25T10:22:05.328Z,99901.63
2022-09-25T10:23:08.295Z,99902.47
2022-09-25T10:24:11.376Z,99910.59
2022-09-25T10:25:12.850Z,99905.44
2022-09-25T10:26:26.415Z,99895.78
2022-09-25T10:27:28.988Z,99897.50
2022-09-25T10:28:32.385Z,99892.97
2022-09-25T10:29:33.893Z,99897.50
2022-09-25T10:30:35.375Z,99897.16
2022-09-25T10:31:38.121Z,99898.81
2022-09-25T10:32:46.655Z,99890.00
2022-09-25T10:34:01.553Z,99898.13
2022-09-25T10:35:03.145Z,99897.81
2022-09-25T10:36:04.736Z,99896.63
2022-09-25T10:37:14.937Z,99897.47
2022-09-25T10:38:19.152Z,99897.13
2022-09-25T10:39:43.527Z,99898.28
2022-09-25T10:40:47.685Z,99899.94
2022-09-25T10:41:49.239Z,99899.94
2022-09-25T10:42:53.219Z,99895.97
2022-09-25T10:43:55.745Z,99904.44
2022-09-25T10:44:58.172Z,99898.78
2022-09-25T10:46:13.554Z,99905.59
2022-09-25T10:47:36.635Z,99906.78
2022-09-25T10:48:57.081Z,99907.94
2022-09-25T10:50:14.068Z,99900.63
2022-09-25T10:51:18.095Z,99908.63
2022-09-25T10:52:19.837Z,99906.13
2022-09-25T10:53:28.281Z,99907.63
2022-09-25T10:54:29.989Z,99905.97
2022-09-25T10:55:51.252Z,99911.63
2022-09-25T10:56:53.768Z,99910.75
2022-09-25T10:58:10.594Z,99914.75
2022-09-25T10:59:21.447Z,99913.94
2022-09-25T11:00:24.280Z,99916.75
2022-09-25T11:01:35.477Z,99911.44
2022-09-25T11:02:41.466Z,99913.94
2022-09-25T11:03:50.937Z,99904.94
2022-09-25T11:04:52.632Z,99913.94
2022-09-25T11:05:55.168Z,99910.59
2022-09-25T11:06:58.261Z,99903.28
2022-09-25T11:08:00.804Z,99901.63
2022-09-25T11:09:02.290Z,99901.63
2022-09-25T11:10:03.895Z,99910.94
2022-09-25T11:11:05.722Z,99907.28
2022-09-25T11:12:07.535Z,99909.28
2022-09-25T11:13:09.661Z,99905.63
2022-09-25T11:14:22.531Z,99902.31
2022-09-25T11:15:26.331Z,99901.47
2022-09-25T11:16:42.665Z,99913.13
2022-09-25T11:17:44.255Z,99907.97
2022-09-25T11:18:46.915Z,99910.28
2022-09-25T11:19:48.572Z,99902.97
2022-09-25T11:20:54.414Z,99910.63
2022-09-25T11:22:00.071Z,99905.28
2022-09-25T11:23:08.384Z,99903.63
2022-09-25T11:24:20.759Z,99913.25
2022-09-25T11:25:27.236Z,99905.13
2022-09-25T11:26:33.463Z,99915.59
2022-09-25T11:27:36.768Z,99907.09
2022-09-25T11:28:44.587Z,99904.28
2022-09-25T11:29:48.971Z,99906.63
2022-09-25T11:31:17.154Z,99910.28
2022-09-25T11:32:20.366Z,99908.28
2022-09-25T11:33:24.507Z,99901.78
2022-09-25T11:34:57.170Z,99903.44
2022-09-25T11:36:01.325Z,99900.97
2022-09-25T11:37:06.211Z,99898.13
2022-09-25T11:38:45.678Z,99898.13
2022-09-25T11:40:07.185Z,99898.13
2022-09-25T11:41:14.932Z,99891.31
2022-09-25T11:42:23.991Z,99896.97
2022-09-25T11:43:43.662Z,99896.97
2022-09-25T11:45:11.179Z,99903.44
2022-09-25T11:46:23.399Z,99896.97
2022-09-25T11:47:54.558Z,99900.97
2022-09-25T11:49:01.396Z,99898.13
2022-09-25T11:50:03.124Z,99902.63
2022-09-25T11:51:18.149Z,99911.09
2022-09-25T11:52:19.607Z,99898.63
2022-09-25T11:53:24.235Z,99902.63
2022-09-25T11:54:34.470Z,99905.94
2022-09-25T11:56:15.351Z,99906.78
2022-09-25T11:57:30.710Z,99897.47
2022-09-25T11:58:44.363Z,99903.94
2022-09-25T11:59:48.886Z,99895.97
2022-09-25T12:00:56.243Z,99902.44
2022-09-25T12:02:19.957Z,99898.78
2022-09-25T12:03:44.531Z,99900.44
2022-09-25T12:04:46.577Z,99904.09
2022-09-25T12:05:48.204Z,99894.78
2022-09-25T12:06:59.298Z,99895.63
2022-09-25T12:08:05.094Z,99902.44
2022-09-25T12:09:10.272Z,99894.63
2022-09-25T12:10:23.679Z,99897.97
2022-09-25T12:11:47.972Z,99898.63
2022-09-25T12:13:07.972Z,99888.16
2022-09-25T12:14:15.299Z,99895.47
2022-09-25T12:15:39.901Z,99892.66
2022-09-25T12:16:48.035Z,99897.97
2022-09-25T12:17:58.839Z,99893.13
2022-09-25T12:19:01.111Z,99893.97
2022-09-25T12:20:21.701Z,99891.97
2022-09-25T12:21:34.562Z,99891.13
2022-09-25T12:22:48.898Z,99881.84
2022-09-25T12:24:11.571Z,99892.31
2022-09-25T12:25:25.532Z,99887.47
2022-09-25T12:26:45.555Z,99891.13
2022-09-25T12:27:53.230Z,99886.00
2022-09-25T12:29:06.082Z,99891.66
2022-09-25T12:30:20.528Z,99891.66
2022-09-25T12:31:27.660Z,99896.97
2022-09-25T12:32:32.887Z,99886.84
2022-09-25T12:33:54.745Z,99886.50
2022-09-25T12:35:07.478Z,99891.50
2022-09-25T12:36:20.205Z,99889.16
2022-09-25T12:37:26.803Z,99895.31
2022-09-25T12:38:41.433Z,99898.13
2022-09-25T12:39:58.153Z,99901.44
2022-09-25T12:41:11.206Z,99897.97
2022-09-25T12:42:35.952Z,99891.66
2022-09-25T12:43:47.690Z,99899.47
2022-09-25T12:45:00.383Z,99899.94
2022-09-25T12:46:07.071Z,99898.78
2022-09-25T12:47:27.917Z,99896.47
2022-09-25T12:48:43.968Z,99905.78
2022-09-25T12:49:47.361Z,99899.31
2022-09-25T12:50:55.584Z,99901.31
2022-09-25T12:51:58.559Z,99902.44
2022-09-25T12:53:04.872Z,99895.97
2022-09-25T12:54:26.171Z,99896.28
2022-09-25T12:55:27.727Z,99906.78